SALOAV 241400Z 08006KT 10KM FEW300CI 18/04 RMK FEW
FCLOAV 241125Z 2412/2421 06006KT 9999 FEW050